Minerva Atlantica — ZCPR7 — position and weather

sailwx.info

Track history (hours):
 
Tides and Currents Weather Stations Pressure Air Temp Water Temp Dewpoint Dewpoint Depression Visibility Wind Speed Wind Dir Waves Ship Positions

Minerva Atlantica

Last reported at 2016-May-04 09:33 UTC. Time now 2016-May-04 09:49 UTC.
Position N 49°42' W 000°39'.

Length 250 m; draft 8.2 m.

Type: Tanker. MMSI: 319161000.

Date/timePositionNaut miles runAvg speedWind from/ knotsBaromVisibWave heightAir tempDewpointWater temp
2016-May-04 09:33N 49°42' W 000°39'1 0.6
2016-May-04 08:33N 49°42' W 000°38'1 0.6
2016-May-04 07:33N 49°41' W 000°39'1 1.4
2016-May-04 06:33N 49°41' W 000°41'2 2.0
2016-May-04 05:33N 49°42' W 000°44'2 2.2
2016-May-04 04:33N 49°42' W 000°48'2 1.8
2016-May-04 03:33N 49°43' W 000°50'1 0.7
2016-May-04 02:33N 49°44' W 000°51'1 0.8
2016-May-04 01:31N 49°44' W 000°50'2 1.6
2016-May-04 00:33N 49°44' W 000°47'2 2.0
2016-May-03 23:33N 49°44' W 000°44'2 2.0
2016-May-03 22:33N 49°44' W 000°41'2 1.6
2016-May-03 21:33N 49°44' W 000°39'1 0.9
2016-May-03 20:33N 49°45' W 000°38'1 1.1
2016-May-03 19:33N 49°46' W 000°38'2 1.8
2016-May-03 18:33N 49°47' W 000°41'2 2.4
2016-May-03 17:33N 49°48' W 000°44'3 3.1
2016-May-03 16:33N 49°49' W 000°49'3 3.1
2016-May-03 15:33N 49°51' W 000°53'2 2.2
2016-May-03 14:33N 49°52' W 000°55'1 1.0
2016-May-03 13:32N 49°53' W 000°56'1 0.9
2016-May-03 12:33N 49°54' W 000°55'2 1.6
2016-May-03 11:33N 49°54' W 000°53'5 4.6
2016-May-03 10:25N 49°52' W 000°46'8 9.2
2016-May-03 09:33N 49°46' W 000°37'9 8.7
2016-May-03 08:33N 49°40' W 000°28'8 7.9
2016-May-03 07:33N 49°34' W 000°19'8 7.6
2016-May-03 06:33N 49°32' W 000°08'1110.7
2016-May-03 05:33N 49°28' E 000°07'1 1.1
2016-May-03 04:33N 49°28' E 000°09'0 0.0
2016-May-03 03:33N 49°28' E 000°09'0 0.0
2016-May-03 02:33N 49°28' E 000°09'0 0.0
2016-May-03 01:33N 49°28' E 000°09'0 0.0
2016-May-03 00:33N 49°28' E 000°09'0 0.0
2016-May-02 23:33N 49°28' E 000°09'0 0.0
2016-May-02 22:33N 49°28' E 000°09'0 0.0
2016-May-02 21:33N 49°28' E 000°09'0 0.0
2016-May-02 20:33N 49°28' E 000°09'0 0.0
2016-May-02 19:33N 49°28' E 000°09'0 0.0
2016-May-02 18:33N 49°28' E 000°09'0 0.0
2016-May-02 17:33N 49°28' E 000°09'0 0.0
2016-May-02 16:33N 49°28' E 000°09'0 0.0
2016-May-02 15:33N 49°28' E 000°09'0 0.0
2016-May-02 14:33N 49°28' E 000°09'0 0.0
2016-May-02 13:33N 49°28' E 000°09'0 0.0
2016-May-02 12:33N 49°28' E 000°09'0 0.0
2016-May-02 11:33N 49°28' E 000°09'0 0.0
2016-May-02 10:33N 49°28' E 000°09'0 0.0
2016-May-02 09:33N 49°28' E 000°09'0 0.0
2016-May-02 08:33N 49°28' E 000°09'0 0.0
2016-May-02 07:33N 49°28' E 000°09'0 0.0
2016-May-02 06:33N 49°28' E 000°09'0 0.0
2016-May-02 05:33N 49°28' E 000°09'0 0.0
2016-May-02 04:33N 49°28' E 000°09'3 2.7
2016-May-02 03:33N 49°29' E 000°05'1010.3
2016-May-02 02:33N 49°32' W 000°10'5 5.4
2016-May-02 01:33N 49°35' W 000°16'1 0.5
2016-May-02 00:33N 49°36' W 000°17'0 0.2
2016-May-01 23:33N 49°36' W 000°17'0 0.0
2016-May-01 22:33N 49°36' W 000°17'0 0.0
2016-May-01 21:33N 49°36' W 000°17'0 0.0
2016-May-01 20:33N 49°36' W 000°17'0 0.1
2016-May-01 19:33N 49°36' W 000°17'0 0.2
2016-May-01 18:33N 49°36' W 000°17'0 0.0
2016-May-01 17:33N 49°36' W 000°17'0 0.0
2016-May-01 16:33N 49°36' W 000°17'0 0.0
2016-May-01 15:33N 49°36' W 000°17'0 0.0
2016-May-01 14:30N 49°36' W 000°17'0 0.0
2016-May-01 13:33N 49°36' W 000°17'0 0.2
2016-May-01 12:33N 49°36' W 000°17'0 0.2
2016-May-01 11:33N 49°36' W 000°17'0 0.0
2016-May-01 10:33N 49°36' W 000°17'0 0.0
2016-May-01 09:33N 49°36' W 000°17'0 0.0
2016-May-01 08:33N 49°36' W 000°17'0 0.0
2016-May-01 07:33N 49°36' W 000°17'0 0.1
2016-May-01 06:33N 49°36' W 000°17'0 0.2
2016-May-01 05:33N 49°36' W 000°17'0 0.1
2016-May-01 04:33N 49°36' W 000°17'0 0.0
2016-May-01 03:33N 49°36' W 000°17'0 0.0
2016-May-01 02:33N 49°36' W 000°17'0 0.0
2016-May-01 01:33N 49°36' W 000°17'0 0.0
2016-May-01 00:33N 49°36' W 000°17'0 0.1
2016-Apr-30 23:33N 49°36' W 000°17'0 0.1
2016-Apr-30 22:33N 49°36' W 000°17'0 0.1
2016-Apr-30 21:33N 49°36' W 000°17'0 0.0
2016-Apr-30 20:33N 49°36' W 000°17'0 0.0
2016-Apr-30 19:33N 49°36' W 000°17'0 0.1
2016-Apr-30 18:33N 49°36' W 000°17'0 0.1
2016-Apr-30 17:33N 49°36' W 000°17'0 0.1
2016-Apr-30 16:33N 49°36' W 000°17'0 0.0
2016-Apr-30 15:33N 49°36' W 000°17'0 0.0
2016-Apr-30 14:33N 49°36' W 000°17'0 0.0
2016-Apr-30 13:33N 49°36' W 000°17'0 0.0
2016-Apr-30 12:33N 49°36' W 000°17'0 0.1
2016-Apr-30 11:33N 49°36' W 000°17'0 0.4
2016-Apr-30 10:33N 49°35' W 000°17'10 9.7
2016-Apr-30 09:33N 49°44' W 000°24'1312.6
2016-Apr-30 08:33N 49°56' W 000°26'1312.9
2016-Apr-30 07:34N 50°09' W 000°25'1413.0
2016-Apr-30 06:30N 50°23' W 000°21'1212.6
2016-Apr-30 05:33N 50°28' W 000°04'1313.1
2016-Apr-30 04:34N 50°31' E 000°16'1312.5
2016-Apr-30 03:33N 50°34' E 000°35'2412.1
2016-Apr-30 01:33N 50°49' E 001°05'1312.9
2016-Apr-30 00:34N 50°57' E 001°21'1414.1
2016-Apr-29 23:33N 51°07' E 001°36'1313.4
2016-Apr-29 22:33N 51°18' E 001°50'1212.3
2016-Apr-29 21:33N 51°28' E 002°00'1211.5
2016-Apr-29 20:33N 51°37' E 002°12'1111.0
2016-Apr-29 19:32N 51°45' E 002°25'167 9.7
2016-Apr-29 02:19N 54°18' E 000°35'1012.7
2016-Apr-29 01:33N 54°23' E 000°20'1312.9
2016-Apr-29 00:33N 54°30' E 000°01'1313.1
2016-Apr-28 23:33N 54°36' W 000°19'1413.5
2016-Apr-28 22:33N 54°42' W 000°39'1212.1
2016-Apr-28 21:33N 54°45' W 000°60'10 9.6
2016-Apr-28 20:33N 54°37' W 001°10'0 0.1
2016-Apr-28 19:32N 54°37' W 001°10'0 0.0
2016-Apr-28 18:29N 54°37' W 001°10'0 0.0
2016-Apr-28 17:20N 54°37' W 001°10'0 0.0
2016-Apr-28 16:20N 54°37' W 001°10'0 0.0
2016-Apr-28 15:23N 54°37' W 001°10'0 0.0
2016-Apr-28 14:05N 54°37' W 001°10'0 0.0
2016-Apr-28 13:20N 54°37' W 001°10'0 0.0
2016-Apr-28 12:26N 54°37' W 001°10'0 0.0
2016-Apr-28 11:26N 54°37' W 001°10'0 0.0
2016-Apr-28 10:23N 54°37' W 001°10'0 0.0
2016-Apr-28 09:29N 54°37' W 001°10'0 0.0
2016-Apr-28 08:29N 54°37' W 001°10'0 0.0
2016-Apr-28 07:14N 54°37' W 001°10'0 0.0
2016-Apr-28 06:32N 54°37' W 001°10'0 0.0
2016-Apr-28 05:29N 54°37' W 001°10'0 0.0
2016-Apr-28 04:32N 54°37' W 001°10'0 0.0
2016-Apr-28 03:20N 54°37' W 001°10'0 0.0
2016-Apr-28 02:32N 54°37' W 001°10'0 0.0
2016-Apr-28 01:32N 54°37' W 001°10'0 0.0
2016-Apr-28 00:23N 54°37' W 001°10'0 0.0
2016-Apr-27 23:23N 54°37' W 001°10'1 1.1
2016-Apr-27 22:33N 54°38' W 001°09'7 6.8
2016-Apr-27 21:31N 54°44' W 001°02'2 1.7
2016-Apr-27 20:34N 54°44' W 000°59'4 4.1
2016-Apr-27 19:27N 54°42' W 000°52'2 1.9
2016-Apr-27 18:32N 54°42' W 000°49'2 1.9
2016-Apr-27 17:30N 54°44' W 000°50'2 2.5
2016-Apr-27 16:33N 54°44' W 000°54'0 0.3
2016-Apr-27 15:31N 54°44' W 000°54'1 1.2
2016-Apr-27 14:33N 54°43' W 000°53'1 1.3
2016-Apr-27 13:31N 54°42' W 000°53'1 0.8
2016-Apr-27 12:31N 54°42' W 000°52'0 0.2
2016-Apr-27 11:31N 54°42' W 000°52'0 0.1
2016-Apr-27 10:31N 54°42' W 000°52'0 0.0
2016-Apr-27 09:25N 54°42' W 000°52'0 0.0
2016-Apr-27 08:28N 54°42' W 000°51'0 0.1
2016-Apr-27 07:31N 54°42' W 000°52'0 0.1
2016-Apr-27 06:31N 54°42' W 000°51'0 0.1
2016-Apr-27 05:28N 54°42' W 000°51'0 0.0
2016-Apr-27 04:31N 54°42' W 000°51'1 1.0
2016-Apr-27 03:32N 54°42' W 000°53'0 0.2
2016-Apr-27 02:31N 54°42' W 000°53'0 0.0
2016-Apr-27 01:28N 54°42' W 000°53'0 0.0
2016-Apr-27 00:25N 54°42' W 000°53'0 0.0
2016-Apr-26 23:31N 54°42' W 000°53'0 0.0
2016-Apr-26 22:29N 54°42' W 000°53'0 0.0
2016-Apr-26 21:31N 54°42' W 000°53'0 0.1
2016-Apr-26 20:31N 54°42' W 000°53'0 0.1
2016-Apr-26 19:32N 54°42' W 000°53'0 0.0
2016-Apr-26 18:32N 54°42' W 000°53'0 0.0
2016-Apr-26 17:31N 54°42' W 000°53'0 0.0
2016-Apr-26 16:32N 54°42' W 000°53'0 0.5
2016-Apr-26 15:34N 54°42' W 000°52'9 8.8
2016-Apr-26 14:34N 54°51' W 000°56'1110.7
2016-Apr-26 13:33N 55°01' W 001°01'1 1.3
2016-Apr-26 12:33N 55°03' W 001°01'3 2.6
2016-Apr-26 11:33N 54°60' W 001°00'2 2.5
2016-Apr-26 10:34N 54°58' W 000°60'2 1.8
2016-Apr-26 09:34N 54°56' W 000°60'1 1.5
2016-Apr-26 08:34N 54°54' W 001°00'1 1.4
2016-Apr-26 07:34N 54°53' W 000°60'0 0.3
2016-Apr-26 06:34N 54°53' W 001°00'0 0.4
2016-Apr-26 05:33N 54°52' W 001°00'0 0.3
2016-Apr-26 04:34N 54°53' W 001°00'0 0.3
2016-Apr-26 03:34N 54°52' W 000°60'0 0.5
2016-Apr-26 02:33N 54°53' W 000°60'1 0.7
2016-Apr-26 01:33N 54°52' W 000°60'1 0.7
2016-Apr-26 00:33N 54°51' W 000°60'1 1.0
2016-Apr-25 23:33N 54°50' W 000°59'2 2.0
2016-Apr-25 22:33N 54°48' W 000°59'6 5.7
2016-Apr-25 21:33N 54°46' W 000°50'10 9.4
2016-Apr-25 20:32N 54°41' W 000°35'9 9.0
2016-Apr-25 19:34N 54°37' W 000°22'9 8.7
2016-Apr-25 18:34N 54°33' W 000°09'9 8.5
2016-Apr-25 17:34N 54°29' E 000°04'9 9.2
2016-Apr-25 16:34N 54°24' E 000°18'10 9.5
2016-Apr-25 15:34N 54°20' E 000°32'175 7.9
2016-Apr-24 17:22N 51°38' E 002°25'910.7
2016-Apr-24 16:34N 51°31' E 002°16'1111.0
2016-Apr-24 15:34N 51°21' E 002°08'1010.2
2016-Apr-24 14:34N 51°13' E 001°59'1211.7
2016-Apr-24 13:34N 51°06' E 001°44'1211.6
2016-Apr-24 12:34N 50°58' E 001°31'1110.5
2016-Apr-24 11:33N 50°48' E 001°24'10 9.7
2016-Apr-24 10:32N 50°40' E 001°16'  
Track history (hours):
 
Tides and Currents Weather Stations Pressure Air Temp Water Temp Dewpoint Dewpoint Depression Visibility Wind Speed Wind Dir Waves Ship Positions

Minerva Atlantica

Last reported at 2016-May-04 09:33 UTC. Time now 2016-May-04 09:49 UTC.
Position N 49°42' W 000°39'.

Length 250 m; draft 8.2 m.

Type: Tanker. MMSI: 319161000.

Date/timePositionNaut miles runAvg speedWind from/ knotsBaromVisibWave heightAir tempDewpointWater temp
2016-May-04 09:33N 49°42' W 000°39'1 0.6
2016-May-04 08:33N 49°42' W 000°38'1 0.6
2016-May-04 07:33N 49°41' W 000°39'1 1.4
2016-May-04 06:33N 49°41' W 000°41'2 2.0
2016-May-04 05:33N 49°42' W 000°44'2 2.2
2016-May-04 04:33N 49°42' W 000°48'2 1.8
2016-May-04 03:33N 49°43' W 000°50'1 0.7
2016-May-04 02:33N 49°44' W 000°51'1 0.8
2016-May-04 01:31N 49°44' W 000°50'2 1.6
2016-May-04 00:33N 49°44' W 000°47'2 2.0
2016-May-03 23:33N 49°44' W 000°44'2 2.0
2016-May-03 22:33N 49°44' W 000°41'2 1.6
2016-May-03 21:33N 49°44' W 000°39'1 0.9
2016-May-03 20:33N 49°45' W 000°38'1 1.1
2016-May-03 19:33N 49°46' W 000°38'2 1.8
2016-May-03 18:33N 49°47' W 000°41'2 2.4
2016-May-03 17:33N 49°48' W 000°44'3 3.1
2016-May-03 16:33N 49°49' W 000°49'3 3.1
2016-May-03 15:33N 49°51' W 000°53'2 2.2
2016-May-03 14:33N 49°52' W 000°55'1 1.0
2016-May-03 13:32N 49°53' W 000°56'1 0.9
2016-May-03 12:33N 49°54' W 000°55'2 1.6
2016-May-03 11:33N 49°54' W 000°53'5 4.6
2016-May-03 10:25N 49°52' W 000°46'8 9.2
2016-May-03 09:33N 49°46' W 000°37'9 8.7
2016-May-03 08:33N 49°40' W 000°28'8 7.9
2016-May-03 07:33N 49°34' W 000°19'8 7.6
2016-May-03 06:33N 49°32' W 000°08'1110.7
2016-May-03 05:33N 49°28' E 000°07'1 1.1
2016-May-03 04:33N 49°28' E 000°09'0 0.0
2016-May-03 03:33N 49°28' E 000°09'0 0.0
2016-May-03 02:33N 49°28' E 000°09'0 0.0
2016-May-03 01:33N 49°28' E 000°09'0 0.0
2016-May-03 00:33N 49°28' E 000°09'0 0.0
2016-May-02 23:33N 49°28' E 000°09'0 0.0
2016-May-02 22:33N 49°28' E 000°09'0 0.0
2016-May-02 21:33N 49°28' E 000°09'0 0.0
2016-May-02 20:33N 49°28' E 000°09'0 0.0
2016-May-02 19:33N 49°28' E 000°09'0 0.0
2016-May-02 18:33N 49°28' E 000°09'0 0.0
2016-May-02 17:33N 49°28' E 000°09'0 0.0
2016-May-02 16:33N 49°28' E 000°09'0 0.0
2016-May-02 15:33N 49°28' E 000°09'0 0.0
2016-May-02 14:33N 49°28' E 000°09'0 0.0
2016-May-02 13:33N 49°28' E 000°09'0 0.0
2016-May-02 12:33N 49°28' E 000°09'0 0.0
2016-May-02 11:33N 49°28' E 000°09'0 0.0
2016-May-02 10:33N 49°28' E 000°09'0 0.0
2016-May-02 09:33N 49°28' E 000°09'0 0.0
2016-May-02 08:33N 49°28' E 000°09'0 0.0
2016-May-02 07:33N 49°28' E 000°09'0 0.0
2016-May-02 06:33N 49°28' E 000°09'0 0.0
2016-May-02 05:33N 49°28' E 000°09'0 0.0
2016-May-02 04:33N 49°28' E 000°09'3 2.7
2016-May-02 03:33N 49°29' E 000°05'1010.3
2016-May-02 02:33N 49°32' W 000°10'5 5.4
2016-May-02 01:33N 49°35' W 000°16'1 0.5
2016-May-02 00:33N 49°36' W 000°17'0 0.2
2016-May-01 23:33N 49°36' W 000°17'0 0.0
2016-May-01 22:33N 49°36' W 000°17'0 0.0
2016-May-01 21:33N 49°36' W 000°17'0 0.0
2016-May-01 20:33N 49°36' W 000°17'0 0.1
2016-May-01 19:33N 49°36' W 000°17'0 0.2
2016-May-01 18:33N 49°36' W 000°17'0 0.0
2016-May-01 17:33N 49°36' W 000°17'0 0.0
2016-May-01 16:33N 49°36' W 000°17'0 0.0
2016-May-01 15:33N 49°36' W 000°17'0 0.0
2016-May-01 14:30N 49°36' W 000°17'0 0.0
2016-May-01 13:33N 49°36' W 000°17'0 0.2
2016-May-01 12:33N 49°36' W 000°17'0 0.2
2016-May-01 11:33N 49°36' W 000°17'0 0.0
2016-May-01 10:33N 49°36' W 000°17'0 0.0
2016-May-01 09:33N 49°36' W 000°17'0 0.0
2016-May-01 08:33N 49°36' W 000°17'0 0.0
2016-May-01 07:33N 49°36' W 000°17'0 0.1
2016-May-01 06:33N 49°36' W 000°17'0 0.2
2016-May-01 05:33N 49°36' W 000°17'0 0.1
2016-May-01 04:33N 49°36' W 000°17'0 0.0
2016-May-01 03:33N 49°36' W 000°17'0 0.0
2016-May-01 02:33N 49°36' W 000°17'0 0.0
2016-May-01 01:33N 49°36' W 000°17'0 0.0
2016-May-01 00:33N 49°36' W 000°17'0 0.1
2016-Apr-30 23:33N 49°36' W 000°17'0 0.1
2016-Apr-30 22:33N 49°36' W 000°17'0 0.1
2016-Apr-30 21:33N 49°36' W 000°17'0 0.0
2016-Apr-30 20:33N 49°36' W 000°17'0 0.0
2016-Apr-30 19:33N 49°36' W 000°17'0 0.1
2016-Apr-30 18:33N 49°36' W 000°17'0 0.1
2016-Apr-30 17:33N 49°36' W 000°17'0 0.1
2016-Apr-30 16:33N 49°36' W 000°17'0 0.0
2016-Apr-30 15:33N 49°36' W 000°17'0 0.0
2016-Apr-30 14:33N 49°36' W 000°17'0 0.0
2016-Apr-30 13:33N 49°36' W 000°17'0 0.0
2016-Apr-30 12:33N 49°36' W 000°17'0 0.1
2016-Apr-30 11:33N 49°36' W 000°17'0 0.4
2016-Apr-30 10:33N 49°35' W 000°17'10 9.7
2016-Apr-30 09:33N 49°44' W 000°24'1312.6
2016-Apr-30 08:33N 49°56' W 000°26'1312.9
2016-Apr-30 07:34N 50°09' W 000°25'1413.0
2016-Apr-30 06:30N 50°23' W 000°21'1212.6
2016-Apr-30 05:33N 50°28' W 000°04'1313.1
2016-Apr-30 04:34N 50°31' E 000°16'1312.5
2016-Apr-30 03:33N 50°34' E 000°35'2412.1
2016-Apr-30 01:33N 50°49' E 001°05'1312.9
2016-Apr-30 00:34N 50°57' E 001°21'1414.1
2016-Apr-29 23:33N 51°07' E 001°36'1313.4
2016-Apr-29 22:33N 51°18' E 001°50'1212.3
2016-Apr-29 21:33N 51°28' E 002°00'1211.5
2016-Apr-29 20:33N 51°37' E 002°12'1111.0
2016-Apr-29 19:32N 51°45' E 002°25'167 9.7
2016-Apr-29 02:19N 54°18' E 000°35'1012.7
2016-Apr-29 01:33N 54°23' E 000°20'1312.9
2016-Apr-29 00:33N 54°30' E 000°01'1313.1
2016-Apr-28 23:33N 54°36' W 000°19'1413.5
2016-Apr-28 22:33N 54°42' W 000°39'1212.1
2016-Apr-28 21:33N 54°45' W 000°60'10 9.6
2016-Apr-28 20:33N 54°37' W 001°10'0 0.1
2016-Apr-28 19:32N 54°37' W 001°10'0 0.0
2016-Apr-28 18:29N 54°37' W 001°10'0 0.0
2016-Apr-28 17:20N 54°37' W 001°10'0 0.0
2016-Apr-28 16:20N 54°37' W 001°10'0 0.0
2016-Apr-28 15:23N 54°37' W 001°10'0 0.0
2016-Apr-28 14:05N 54°37' W 001°10'0 0.0
2016-Apr-28 13:20N 54°37' W 001°10'0 0.0
2016-Apr-28 12:26N 54°37' W 001°10'0 0.0
2016-Apr-28 11:26N 54°37' W 001°10'0 0.0
2016-Apr-28 10:23N 54°37' W 001°10'0 0.0
2016-Apr-28 09:29N 54°37' W 001°10'0 0.0
2016-Apr-28 08:29N 54°37' W 001°10'0 0.0
2016-Apr-28 07:14N 54°37' W 001°10'0 0.0
2016-Apr-28 06:32N 54°37' W 001°10'0 0.0
2016-Apr-28 05:29N 54°37' W 001°10'0 0.0
2016-Apr-28 04:32N 54°37' W 001°10'0 0.0
2016-Apr-28 03:20N 54°37' W 001°10'0 0.0
2016-Apr-28 02:32N 54°37' W 001°10'0 0.0
2016-Apr-28 01:32N 54°37' W 001°10'0 0.0
2016-Apr-28 00:23N 54°37' W 001°10'0 0.0
2016-Apr-27 23:23N 54°37' W 001°10'1 1.1
2016-Apr-27 22:33N 54°38' W 001°09'7 6.8
2016-Apr-27 21:31N 54°44' W 001°02'2 1.7
2016-Apr-27 20:34N 54°44' W 000°59'4 4.1
2016-Apr-27 19:27N 54°42' W 000°52'2 1.9
2016-Apr-27 18:32N 54°42' W 000°49'2 1.9
2016-Apr-27 17:30N 54°44' W 000°50'2 2.5
2016-Apr-27 16:33N 54°44' W 000°54'0 0.3
2016-Apr-27 15:31N 54°44' W 000°54'1 1.2
2016-Apr-27 14:33N 54°43' W 000°53'1 1.3
2016-Apr-27 13:31N 54°42' W 000°53'1 0.8
2016-Apr-27 12:31N 54°42' W 000°52'0 0.2
2016-Apr-27 11:31N 54°42' W 000°52'0 0.1
2016-Apr-27 10:31N 54°42' W 000°52'0 0.0
2016-Apr-27 09:25N 54°42' W 000°52'0 0.0
2016-Apr-27 08:28N 54°42' W 000°51'0 0.1
2016-Apr-27 07:31N 54°42' W 000°52'0 0.1
2016-Apr-27 06:31N 54°42' W 000°51'0 0.1
2016-Apr-27 05:28N 54°42' W 000°51'0 0.0
2016-Apr-27 04:31N 54°42' W 000°51'1 1.0
2016-Apr-27 03:32N 54°42' W 000°53'0 0.2
2016-Apr-27 02:31N 54°42' W 000°53'0 0.0
2016-Apr-27 01:28N 54°42' W 000°53'0 0.0
2016-Apr-27 00:25N 54°42' W 000°53'0 0.0
2016-Apr-26 23:31N 54°42' W 000°53'0 0.0
2016-Apr-26 22:29N 54°42' W 000°53'0 0.0
2016-Apr-26 21:31N 54°42' W 000°53'0 0.1
2016-Apr-26 20:31N 54°42' W 000°53'0 0.1
2016-Apr-26 19:32N 54°42' W 000°53'0 0.0
2016-Apr-26 18:32N 54°42' W 000°53'0 0.0
2016-Apr-26 17:31N 54°42' W 000°53'0 0.0
2016-Apr-26 16:32N 54°42' W 000°53'0 0.5
2016-Apr-26 15:34N 54°42' W 000°52'9 8.8
2016-Apr-26 14:34N 54°51' W 000°56'1110.7
2016-Apr-26 13:33N 55°01' W 001°01'1 1.3
2016-Apr-26 12:33N 55°03' W 001°01'3 2.6
2016-Apr-26 11:33N 54°60' W 001°00'2 2.5
2016-Apr-26 10:34N 54°58' W 000°60'2 1.8
2016-Apr-26 09:34N 54°56' W 000°60'1 1.5
2016-Apr-26 08:34N 54°54' W 001°00'1 1.4
2016-Apr-26 07:34N 54°53' W 000°60'0 0.3
2016-Apr-26 06:34N 54°53' W 001°00'0 0.4
2016-Apr-26 05:33N 54°52' W 001°00'0 0.3
2016-Apr-26 04:34N 54°53' W 001°00'0 0.3
2016-Apr-26 03:34N 54°52' W 000°60'0 0.5
2016-Apr-26 02:33N 54°53' W 000°60'1 0.7
2016-Apr-26 01:33N 54°52' W 000°60'1 0.7
2016-Apr-26 00:33N 54°51' W 000°60'1 1.0
2016-Apr-25 23:33N 54°50' W 000°59'2 2.0
2016-Apr-25 22:33N 54°48' W 000°59'6 5.7
2016-Apr-25 21:33N 54°46' W 000°50'10 9.4
2016-Apr-25 20:32N 54°41' W 000°35'9 9.0
2016-Apr-25 19:34N 54°37' W 000°22'9 8.7
2016-Apr-25 18:34N 54°33' W 000°09'9 8.5
2016-Apr-25 17:34N 54°29' E 000°04'9 9.2
2016-Apr-25 16:34N 54°24' E 000°18'10 9.5
2016-Apr-25 15:34N 54°20' E 000°32'175 7.9
2016-Apr-24 17:22N 51°38' E 002°25'910.7
2016-Apr-24 16:34N 51°31' E 002°16'1111.0
2016-Apr-24 15:34N 51°21' E 002°08'1010.2
2016-Apr-24 14:34N 51°13' E 001°59'1211.7
2016-Apr-24 13:34N 51°06' E 001°44'1211.6
2016-Apr-24 12:34N 50°58' E 001°31'1110.5
2016-Apr-24 11:33N 50°48' E 001°24'10 9.7
2016-Apr-24 10:32N 50°40' E 001°16'  

Dump ship's entire track history